createdAt,value
2022-08-12T00:02:03.128Z,5.3
2022-08-12T00:03:42.375Z,6.1
2022-08-12T00:06:03.911Z,5.1
2022-08-12T00:07:53.341Z,5.9
2022-08-12T00:09:57.182Z,5.5
2022-08-12T00:12:01.038Z,5.3
2022-08-12T00:15:08.477Z,6.2
2022-08-12T00:17:12.292Z,5.4
2022-08-12T00:19:16.129Z,5.9
2022-08-12T00:21:24.860Z,5.5
2022-08-12T00:23:27.174Z,6
2022-08-12T00:26:01.393Z,5.4
2022-08-12T00:33:52.290Z,6.7
2022-08-12T00:37:57.394Z,7
2022-08-12T00:42:05.088Z,7.2
2022-08-12T00:44:08.922Z,6.3
2022-08-12T00:48:16.624Z,7
2022-08-12T00:50:23.746Z,6.7
2022-08-12T00:52:27.588Z,6.7
2022-08-12T00:56:35.290Z,6.2
2022-08-12T01:02:46.853Z,7.7
2022-08-12T01:04:53.999Z,6.9
2022-08-12T01:06:57.842Z,6.8
2022-08-12T01:09:01.712Z,7.1
2022-08-12T01:10:05.304Z,6.7
2022-08-12T01:12:09.133Z,6.7
2022-08-12T01:14:12.995Z,7.3
2022-08-12T01:16:16.861Z,6.2
2022-08-12T01:18:25.645Z,7.2
2022-08-12T01:20:29.452Z,7.1
2022-08-12T01:24:37.181Z,6.4
2022-08-12T01:28:44.900Z,6.1
2022-08-12T01:30:48.791Z,6.2
2022-08-12T01:32:55.960Z,7.2
2022-08-12T01:34:59.816Z,6.2
2022-08-12T01:37:03.679Z,7
2022-08-12T01:39:07.538Z,6.8
2022-08-12T01:41:11.398Z,6.2
2022-08-12T01:43:15.271Z,6.6
2022-08-12T01:45:19.143Z,6.5
2022-08-12T01:47:26.263Z,6.9
2022-08-12T01:49:30.108Z,6.6
2022-08-12T01:52:21.550Z,6.9
2022-08-12T01:53:50.192Z,6.9
2022-08-12T01:55:41.689Z,7
2022-08-12T01:57:59.518Z,6.9
2022-08-12T01:59:49.410Z,7.2
2022-08-12T02:01:56.733Z,7
2022-08-12T02:04:00.420Z,6.9
2022-08-12T02:06:04.291Z,7.3
2022-08-12T02:07:07.867Z,7.3
2022-08-12T02:09:11.740Z,7
2022-08-12T02:11:15.598Z,7.3
2022-08-12T02:13:41.795Z,7.5
2022-08-12T02:15:26.595Z,7.7
2022-08-12T02:17:55.819Z,7.2
2022-08-12T02:21:38.178Z,7.1
2022-08-12T02:23:42.030Z,7.5
2022-08-12T02:25:45.908Z,7.1
2022-08-12T02:27:49.746Z,7.6
2022-08-12T02:29:56.893Z,8.6
2022-08-12T02:32:00.778Z,8
2022-08-12T02:36:08.527Z,7.2
2022-08-12T02:40:16.234Z,7.2
2022-08-12T02:48:34.969Z,7.4
2022-08-12T02:50:38.806Z,6.9
2022-08-12T02:54:46.605Z,6.9
2022-08-12T02:56:51.072Z,8
2022-08-12T02:58:57.563Z,8.5
2022-08-12T03:01:01.533Z,8.5
2022-08-12T03:03:05.346Z,7.5
2022-08-12T03:05:30.465Z,8.6
2022-08-12T03:07:56.265Z,7.8
2022-08-12T03:09:42.186Z,7.9
2022-08-12T03:11:48.707Z,7.9
2022-08-12T03:13:49.199Z,7.8
2022-08-12T03:18:25.423Z,8.1
2022-08-12T03:20:09.748Z,8.5
2022-08-12T03:22:08.885Z,7.5
2022-08-12T03:24:08.576Z,7.8
2022-08-12T03:26:15.737Z,7.9
2022-08-12T03:28:23.931Z,8.3
2022-08-12T03:30:23.482Z,8.3
2022-08-12T03:32:35.227Z,7.9
2022-08-12T03:36:35.637Z,8.2
2022-08-12T03:38:38.981Z,8.9
2022-08-12T03:40:46.102Z,7.9
2022-08-12T03:42:49.994Z,8.9
2022-08-12T03:44:53.866Z,8.5
2022-08-12T03:46:57.724Z,8
2022-08-12T03:49:01.620Z,8.5
2022-08-12T03:51:05.490Z,8.6
2022-08-12T03:53:09.362Z,8.8
2022-08-12T03:55:16.494Z,9.6
2022-08-12T04:00:27.831Z,9.1
2022-08-12T04:04:35.595Z,9.7
2022-08-12T04:08:46.670Z,9.3
2022-08-12T04:10:50.561Z,9.7
2022-08-12T04:14:58.329Z,8.6
2022-08-12T04:17:02.228Z,9.2
2022-08-12T04:19:06.086Z,9
2022-08-12T04:21:09.990Z,9.3
2022-08-12T04:23:17.154Z,9.3
2022-08-12T04:27:24.934Z,9
2022-08-12T04:30:30.033Z,9.3
2022-08-12T04:33:36.533Z,8.8
2022-08-12T04:35:40.439Z,9.6
2022-08-12T04:37:59.479Z,9.4
2022-08-12T04:41:58.363Z,8.5
2022-08-12T04:44:02.189Z,9.3
2022-08-12T04:46:03.154Z,9.9
2022-08-12T04:48:07.203Z,9.6
2022-08-12T04:50:34.606Z,9.8
2022-08-12T04:52:18.066Z,10.2
2022-08-12T04:56:25.848Z,9.8
2022-08-12T05:01:37.208Z,10.6
2022-08-12T05:05:48.285Z,10.6
2022-08-12T05:10:00.586Z,10.2
2022-08-12T05:14:03.784Z,10.5
2022-08-12T05:18:19.414Z,10.1
2022-08-12T05:20:18.692Z,11.1
2022-08-12T05:26:30.335Z,10.6
2022-08-12T05:28:34.192Z,10.5
2022-08-12T05:30:38.039Z,10.2
2022-08-12T05:32:42.189Z,11.3
2022-08-12T05:34:49.082Z,12.2
2022-08-12T05:38:56.836Z,11.1
2022-08-12T05:41:00.721Z,10.5
2022-08-12T05:45:08.482Z,11.7
2022-08-12T05:47:12.330Z,10.4
2022-08-12T05:53:27.214Z,11.2
2022-08-12T05:58:38.505Z,10.5
2022-08-12T06:02:49.514Z,12.2
2022-08-12T06:11:04.953Z,11.7
2022-08-12T06:13:08.818Z,10.4
2022-08-12T06:15:12.665Z,11.3
2022-08-12T06:25:35.234Z,11.5
2022-08-12T06:30:10.300Z,11.7
2022-08-12T06:31:50.099Z,11.1
2022-08-12T06:33:57.616Z,10.2
2022-08-12T06:35:58.877Z,11.1
2022-08-12T06:40:05.466Z,11.7
2022-08-12T06:44:13.136Z,12.6
2022-08-12T06:48:24.075Z,10.7
2022-08-12T06:50:27.923Z,10.4
2022-08-12T06:52:52.802Z,11.5
2022-08-12T06:54:56.619Z,10.9
2022-08-12T06:57:04.340Z,9.9
2022-08-12T06:59:07.536Z,10.5
2022-08-12T07:01:11.396Z,10.2
2022-08-12T07:03:16.264Z,10.8
2022-08-12T07:05:18.903Z,10.6
2022-08-12T07:09:56.604Z,9.5
2022-08-12T07:11:30.233Z,9.4
2022-08-12T07:13:37.322Z,9.4
2022-08-12T07:15:42.725Z,9.6
2022-08-12T07:17:46.436Z,9.9
2022-08-12T07:19:50.199Z,9.1
2022-08-12T07:23:57.687Z,9.1
2022-08-12T07:26:01.453Z,9.2
2022-08-12T07:28:08.998Z,10.2
2022-08-12T07:30:12.115Z,9.9
2022-08-12T07:32:15.857Z,8.7
2022-08-12T07:34:19.479Z,9.3
2022-08-12T07:36:23.068Z,9.2
2022-08-12T07:38:29.125Z,9.4
2022-08-12T07:40:30.263Z,9.1
2022-08-12T07:47:47.664Z,9.7
2022-08-12T07:50:04.388Z,9.4
2022-08-12T07:51:54.801Z,9
2022-08-12T07:54:00.786Z,8.6
2022-08-12T07:56:05.208Z,9.6
2022-08-12T07:58:08.760Z,9
2022-08-12T08:00:12.295Z,9.2
2022-08-12T08:02:15.862Z,9.8
2022-08-12T08:04:19.691Z,8.9
2022-08-12T08:06:22.971Z,8.7
2022-08-12T08:08:26.499Z,9.1
2022-08-12T08:10:33.249Z,10.1
2022-08-12T08:12:36.779Z,7.9
2022-08-12T08:14:40.345Z,10
2022-08-12T08:16:43.849Z,8.6
2022-08-12T08:18:47.364Z,9.1
2022-08-12T08:20:51.042Z,9.4
2022-08-12T08:22:54.397Z,8.9
2022-08-12T08:25:01.147Z,8.9
2022-08-12T08:29:08.163Z,8.7
2022-08-12T08:31:11.705Z,8.7
2022-08-12T08:33:23.081Z,7.9
2022-08-12T08:35:18.677Z,7.7
2022-08-12T08:37:22.167Z,8.5
2022-08-12T08:39:28.929Z,8.2
2022-08-12T08:42:14.186Z,6.7
2022-08-12T08:43:43.806Z,6.7
2022-08-12T08:44:39.225Z,7.7
2022-08-12T08:48:46.165Z,7
2022-08-12T08:51:04.521Z,6.1
2022-08-12T08:52:56.330Z,6
2022-08-12T08:54:50.726Z,6
2022-08-12T19:24:15.068Z,4.1
2022-08-12T19:26:18.640Z,4
2022-08-12T19:30:41.075Z,4.2
2022-08-12T19:32:44.656Z,3.6
2022-08-12T19:36:55.063Z,3.9
2022-08-12T19:38:58.605Z,3.9
2022-08-12T19:41:02.415Z,3.8
2022-08-12T19:43:17.236Z,4
2022-08-12T19:45:12.098Z,4
2022-08-12T19:47:16.347Z,4.1
2022-08-12T19:49:19.799Z,4.6
2022-08-12T19:51:24.777Z,4
2022-08-12T19:53:27.611Z,4.3
2022-08-12T19:55:30.667Z,4.6
2022-08-12T20:02:03.207Z,4.3
2022-08-12T20:03:59.378Z,4.3
2022-08-12T20:07:58.925Z,5
2022-08-12T20:09:59.690Z,5.4
2022-08-12T20:12:09.323Z,4.9
2022-08-12T20:14:07.317Z,4.6
2022-08-12T20:16:32.273Z,5.5
2022-08-12T20:18:43.685Z,6.5
2022-08-12T20:20:27.794Z,6.4
2022-08-12T20:22:31.371Z,6.2
2022-08-12T20:23:37.067Z,7.5
2022-08-12T20:28:04.559Z,6.3
2022-08-12T20:31:47.182Z,6.2
2022-08-12T20:33:56.142Z,5.6
2022-08-12T20:36:13.968Z,5.6
2022-08-12T20:38:07.201Z,4.8
2022-08-12T20:40:05.347Z,4.9
2022-08-12T20:42:07.492Z,5.3
2022-08-12T20:44:16.879Z,4.5
2022-08-12T20:46:16.673Z,4.8
2022-08-12T20:48:20.411Z,4.5
2022-08-12T20:50:24.163Z,4.1
2022-08-12T20:52:30.237Z,4.7
2022-08-12T20:54:32.737Z,5.1
2022-08-12T20:58:39.175Z,4.7
2022-08-12T21:00:46.255Z,4.8
2022-08-12T21:06:57.504Z,4.5
2022-08-12T21:13:20.453Z,4.9
2022-08-12T21:17:19.545Z,4.8
2022-08-12T21:19:24.044Z,4.5
2022-08-12T21:20:26.855Z,4.5
2022-08-12T21:24:34.359Z,4.5
2022-08-12T21:26:40.021Z,4.4
2022-08-12T21:28:58.253Z,4.8
2022-08-12T21:31:11.567Z,4.2
2022-08-12T21:32:52.862Z,4.3
2022-08-12T21:34:56.483Z,4.6
2022-08-12T21:37:01.751Z,3.5
2022-08-12T21:39:18.898Z,4.1
2022-08-12T21:41:09.309Z,4.2
2022-08-12T21:43:14.908Z,3.9
2022-08-12T21:45:47.936Z,3.9
2022-08-12T21:47:22.692Z,4.2
2022-08-12T21:49:53.699Z,4.1
2022-08-12T21:51:50.209Z,4.1
2022-08-12T21:54:07.037Z,3.7
2022-08-12T21:55:37.514Z,4.1
2022-08-12T21:59:48.353Z,4.4
2022-08-12T22:01:52.152Z,4
2022-08-12T22:04:03.023Z,3.5
2022-08-12T22:05:59.657Z,4.4
2022-08-12T22:08:03.465Z,4.6
2022-08-12T22:10:07.231Z,4.5
2022-08-12T22:12:17.711Z,4.7
2022-08-12T22:14:23.711Z,4.4
2022-08-12T22:16:21.899Z,4.9
2022-08-12T22:23:52.016Z,5.3
2022-08-12T22:25:44.987Z,5.6
2022-08-12T22:27:48.761Z,5.1
2022-08-12T22:29:52.543Z,5.1
2022-08-12T22:31:56.343Z,5
2022-08-12T22:34:00.289Z,5
2022-08-12T22:36:03.952Z,5.9
2022-08-12T22:38:07.743Z,5
2022-08-12T22:48:30.721Z,5.6
2022-08-12T22:50:33.917Z,5.2
2022-08-12T22:52:37.729Z,5.5
2022-08-12T22:56:48.692Z,5.5
2022-08-12T22:58:52.488Z,5.4
2022-08-12T23:00:56.345Z,5.1
2022-08-12T23:03:02.905Z,4.6
2022-08-12T23:07:07.763Z,5.3
2022-08-12T23:09:14.855Z,5.6
2022-08-12T23:11:23.887Z,5.9
2022-08-12T23:13:22.533Z,5.4
2022-08-12T23:15:54.544Z,5.5
2022-08-12T23:17:51.443Z,5.1
2022-08-12T23:19:55.284Z,4.8
2022-08-12T23:22:06.761Z,6
2022-08-12T23:24:10.413Z,5.6
2022-08-12T23:26:10.050Z,6
2022-08-12T23:30:24.766Z,6.3
2022-08-12T23:40:40.168Z,7.1
2022-08-12T23:42:44.107Z,7.3
2022-08-12T23:44:47.809Z,7.2
2022-08-12T23:55:23.211Z,7.3
2022-08-12T23:59:17.989Z,6
